createdAt,value
2017-03-15T00:00:05.958Z,64.93
2017-03-15T00:01:06.033Z,64.55
2017-03-15T00:02:06.051Z,60.60
2017-03-15T00:09:18.762Z,63.62
2017-03-15T00:10:18.771Z,68.57
2017-03-15T00:11:19.483Z,67.65
2017-03-15T00:12:19.499Z,68.75
2017-03-15T00:13:21.426Z,63.47
2017-03-15T00:14:22.239Z,69.08
2017-03-15T00:15:22.235Z,70.82
2017-03-15T00:16:22.234Z,66.40
2017-03-15T00:17:22.531Z,63.90
2017-03-15T00:18:22.491Z,71.48
2017-03-15T00:19:22.481Z,68.63
2017-03-15T00:20:22.539Z,75.73
2017-03-15T00:21:22.543Z,69.25
2017-03-15T00:22:22.567Z,75.88
2017-03-15T00:23:22.666Z,65.92
2017-03-15T00:24:22.639Z,71.25
2017-03-15T00:25:23.391Z,64.42
2017-03-15T00:26:23.350Z,75.17
2017-03-15T00:27:23.332Z,77.10
2017-03-15T00:28:23.280Z,73.18
2017-03-15T00:29:23.213Z,77.13
2017-03-15T00:30:23.226Z,77.77
2017-03-15T00:31:23.240Z,74.93
2017-03-15T00:32:23.387Z,72.78
2017-03-15T00:33:23.370Z,71.62
2017-03-15T00:34:23.352Z,76.28
2017-03-15T00:35:23.383Z,77.65
2017-03-15T00:36:23.466Z,74.78
2017-03-15T00:37:23.477Z,76.72
2017-03-15T00:38:23.474Z,80.97
2017-03-15T00:39:24.254Z,77.47
2017-03-15T00:40:24.328Z,73.10
2017-03-15T00:41:24.305Z,73.28
2017-03-15T00:42:24.266Z,82.70
2017-03-15T00:43:24.309Z,91.42
2017-03-15T00:44:24.282Z,81.22
2017-03-15T00:45:24.295Z,75.77
2017-03-15T00:46:24.318Z,78.07
2017-03-15T00:47:24.279Z,85.93
2017-03-15T00:48:24.242Z,74.28
2017-03-15T00:49:24.194Z,86.68
2017-03-15T00:50:24.250Z,89.98
2017-03-15T00:51:24.251Z,92.28
2017-03-15T00:52:24.938Z,83.53
2017-03-15T00:53:24.942Z,82.18
2017-03-15T00:54:24.961Z,80.65
2017-03-15T00:55:24.983Z,89.42
2017-03-15T00:56:25.034Z,78.62
2017-03-15T00:57:25.069Z,80.97
2017-03-15T00:58:25.023Z,76.98
2017-03-15T00:59:24.961Z,87.70
2017-03-15T01:00:24.968Z,78.53
2017-03-15T01:01:24.997Z,84.18
2017-03-15T01:02:25.029Z,71.25
2017-03-15T01:03:25.037Z,79.85
2017-03-15T01:04:24.996Z,79.08
2017-03-15T01:05:25.011Z,81.67
2017-03-15T01:06:25.030Z,82.55
2017-03-15T01:07:24.991Z,86.05
2017-03-15T01:08:25.290Z,79.72
2017-03-15T01:09:26.114Z,78.10
2017-03-15T01:10:26.186Z,87.02
2017-03-15T01:11:26.150Z,86.75
2017-03-15T01:12:26.195Z,77.83
2017-03-15T01:13:26.885Z,91.63
2017-03-15T01:14:26.844Z,85.95
2017-03-15T01:15:26.906Z,83.00
2017-03-15T01:16:26.845Z,79.70
2017-03-15T01:17:26.850Z,87.15
2017-03-15T01:18:26.860Z,90.28
2017-03-15T01:19:26.882Z,84.03
2017-03-15T01:20:26.902Z,82.75
2017-03-15T01:21:26.850Z,82.05
2017-03-15T01:22:26.794Z,85.42
2017-03-15T01:23:26.760Z,82.18
2017-03-15T01:24:27.084Z,91.45
2017-03-15T01:25:27.057Z,83.95
2017-03-15T01:26:27.027Z,84.52
2017-03-15T01:27:30.535Z,87.73
2017-03-15T01:28:35.004Z,81.77
2017-03-15T01:29:36.540Z,90.88
2017-03-15T01:30:43.819Z,78.85
2017-03-15T01:31:43.881Z,81.88
2017-03-15T01:32:43.843Z,84.77
2017-03-15T01:33:43.824Z,83.55
2017-03-15T01:34:43.814Z,96.53
2017-03-15T01:35:43.844Z,83.02
2017-03-15T01:36:43.821Z,86.33
2017-03-15T01:37:44.523Z,86.42
2017-03-15T01:38:45.218Z,83.07
2017-03-15T01:39:45.172Z,89.70
2017-03-15T01:40:45.150Z,86.02
2017-03-15T01:41:45.875Z,81.63
2017-03-15T01:42:45.979Z,99.17
2017-03-15T01:43:45.985Z,92.97
2017-03-15T01:44:46.003Z,83.53
2017-03-15T01:45:46.775Z,89.82
2017-03-15T01:46:46.792Z,79.13
2017-03-15T01:47:46.783Z,75.12
2017-03-15T01:48:46.808Z,80.88
2017-03-15T01:49:46.783Z,83.10
2017-03-15T01:50:46.833Z,87.70
2017-03-15T01:51:46.831Z,88.63
2017-03-15T01:52:46.816Z,80.92
2017-03-15T01:53:46.856Z,78.70
2017-03-15T01:54:46.868Z,82.43
2017-03-15T01:55:46.850Z,82.62
2017-03-15T01:56:46.821Z,82.98
2017-03-15T01:57:46.876Z,75.35
2017-03-15T01:58:46.823Z,77.28
2017-03-15T01:59:46.785Z,78.82
2017-03-15T02:00:46.852Z,85.82
2017-03-15T02:01:46.799Z,79.98
2017-03-15T02:02:46.780Z,83.52
2017-03-15T02:03:46.747Z,79.67
2017-03-15T02:04:46.901Z,78.03
2017-03-15T02:05:46.992Z,74.32
2017-03-15T02:06:46.966Z,80.12
2017-03-15T02:07:46.950Z,77.63
2017-03-15T02:08:46.926Z,72.68
2017-03-15T02:09:46.941Z,81.20
2017-03-15T02:10:46.970Z,78.00
2017-03-15T02:11:47.715Z,77.77
2017-03-15T02:12:47.707Z,70.37
2017-03-15T02:13:47.718Z,74.28
2017-03-15T02:14:47.704Z,76.12
2017-03-15T02:15:47.748Z,84.95
2017-03-15T02:16:47.789Z,67.85
2017-03-15T02:17:47.804Z,76.95
2017-03-15T02:18:47.788Z,76.70
2017-03-15T02:19:47.785Z,68.87
2017-03-15T02:20:47.973Z,70.70
2017-03-15T02:21:47.967Z,82.75
2017-03-15T02:22:47.995Z,74.23
2017-03-15T02:23:48.047Z,76.23
2017-03-15T02:24:48.056Z,72.48
2017-03-15T02:25:48.066Z,76.87
2017-03-15T02:26:48.051Z,74.48
2017-03-15T02:27:48.026Z,67.37
2017-03-15T02:28:48.090Z,72.97
2017-03-15T02:29:48.051Z,69.13
2017-03-15T02:30:48.058Z,70.57
2017-03-15T02:31:48.002Z,69.25
2017-03-15T02:32:47.975Z,63.28
2017-03-15T02:33:47.967Z,66.85
2017-03-15T02:34:47.972Z,72.07
2017-03-15T02:35:48.159Z,68.10
2017-03-15T02:36:48.131Z,65.53
2017-03-15T02:37:48.124Z,69.42
2017-03-15T02:38:48.155Z,68.28
2017-03-15T02:39:48.108Z,62.17
2017-03-15T02:40:48.120Z,66.75
2017-03-15T02:41:48.105Z,66.18
2017-03-15T02:42:48.074Z,64.47
2017-03-15T02:43:48.066Z,68.62
2017-03-15T02:44:48.030Z,64.00
2017-03-15T02:45:48.159Z,70.48
2017-03-15T02:46:49.003Z,71.83
2017-03-15T02:47:48.948Z,69.37
2017-03-15T02:48:48.953Z,71.98
2017-03-15T02:49:48.928Z,66.47
2017-03-15T02:50:48.915Z,69.67
2017-03-15T02:51:48.937Z,69.75
2017-03-15T02:52:48.936Z,70.12
2017-03-15T02:53:48.962Z,71.93
2017-03-15T02:54:48.947Z,72.62
2017-03-15T02:55:49.722Z,68.72
2017-03-15T02:56:49.730Z,69.20
2017-03-15T02:57:49.773Z,68.57
2017-03-15T02:58:49.743Z,64.93
2017-03-15T02:59:49.757Z,68.38
2017-03-15T03:00:49.763Z,71.63
2017-03-15T03:01:49.834Z,68.73
2017-03-15T03:02:49.871Z,67.37
2017-03-15T03:03:49.915Z,68.87
2017-03-15T03:04:49.885Z,69.68
2017-03-15T03:05:49.859Z,61.73
2017-03-15T03:06:49.987Z,64.17
2017-03-15T03:07:50.035Z,76.50
2017-03-15T03:08:50.021Z,60.83
2017-03-15T03:09:50.011Z,68.53
2017-03-15T03:10:50.000Z,67.38
2017-03-15T03:11:49.986Z,66.05
2017-03-15T03:12:49.962Z,64.03
2017-03-15T03:13:49.932Z,59.67
2017-03-15T03:14:49.914Z,75.30
2017-03-15T03:15:49.844Z,69.07
2017-03-15T03:16:49.839Z,66.25
2017-03-15T03:17:49.893Z,73.10
2017-03-15T03:18:49.882Z,70.80
2017-03-15T03:19:49.837Z,69.15
2017-03-15T03:20:50.174Z,63.42
2017-03-15T03:21:50.130Z,65.23
2017-03-15T03:22:50.127Z,66.90
2017-03-15T03:23:50.115Z,64.63
2017-03-15T03:24:50.123Z,58.93
2017-03-15T03:25:51.239Z,66.98
2017-03-15T03:26:51.243Z,64.97
2017-03-15T03:27:51.189Z,67.43
2017-03-15T03:28:51.157Z,63.73
2017-03-15T03:29:51.144Z,63.08
2017-03-15T03:30:51.089Z,62.38
2017-03-15T03:31:51.065Z,72.45
2017-03-15T03:32:51.050Z,66.10
2017-03-15T03:33:51.015Z,66.67
2017-03-15T03:34:50.987Z,71.62
2017-03-15T03:35:50.974Z,71.10
2017-03-15T03:36:50.940Z,63.42
2017-03-15T03:37:51.098Z,71.90
2017-03-15T03:38:51.046Z,76.23
2017-03-15T03:39:50.993Z,65.70
2017-03-15T03:40:50.987Z,64.38
2017-03-15T03:41:50.916Z,70.08
2017-03-15T03:42:50.879Z,70.23
2017-03-15T03:43:51.687Z,69.05
2017-03-15T03:44:51.663Z,60.13
2017-03-15T03:45:51.609Z,63.35
2017-03-15T03:46:51.574Z,63.22
2017-03-15T03:47:51.529Z,69.58
2017-03-15T03:48:51.555Z,70.20
2017-03-15T03:49:51.508Z,70.67
2017-03-15T03:50:51.478Z,71.38
2017-03-15T03:51:51.444Z,70.40
2017-03-15T03:52:51.567Z,65.77
2017-03-15T03:53:51.552Z,65.55
2017-03-15T03:54:51.511Z,64.17
2017-03-15T03:55:51.486Z,67.75
2017-03-15T03:56:51.468Z,75.23
2017-03-15T03:57:51.437Z,70.58
2017-03-15T03:58:51.414Z,71.67
2017-03-15T03:59:51.400Z,72.73
2017-03-15T04:00:51.420Z,66.45
2017-03-15T04:01:51.392Z,69.93
2017-03-15T04:02:51.351Z,71.57
2017-03-15T04:03:51.358Z,69.23
2017-03-15T04:04:52.095Z,72.35
2017-03-15T04:05:52.075Z,72.02
2017-03-15T04:06:52.794Z,68.67
2017-03-15T04:07:53.511Z,73.42
2017-03-15T04:08:54.267Z,68.87
2017-03-15T04:09:54.282Z,66.77
2017-03-15T04:10:54.252Z,65.07
2017-03-15T04:11:54.977Z,75.98
2017-03-15T04:12:54.954Z,59.77
2017-03-15T04:13:54.958Z,65.23
2017-03-15T04:14:55.028Z,70.63
2017-03-15T04:15:55.010Z,68.17
2017-03-15T04:16:55.763Z,74.27
2017-03-15T04:17:55.731Z,72.23
2017-03-15T04:18:56.425Z,66.28
2017-03-15T04:19:56.413Z,73.20
2017-03-15T04:20:56.374Z,72.27
2017-03-15T04:21:56.491Z,70.30
2017-03-15T04:22:56.472Z,70.70
2017-03-15T04:23:56.432Z,77.88
2017-03-15T04:24:56.408Z,78.25
2017-03-15T04:25:56.373Z,71.80
2017-03-15T04:26:56.373Z,75.45
2017-03-15T04:27:56.360Z,72.60
2017-03-15T04:28:56.326Z,77.27
2017-03-15T04:29:56.343Z,79.45
2017-03-15T04:30:56.311Z,68.12
2017-03-15T04:31:56.270Z,70.62
2017-03-15T04:32:56.237Z,77.53
2017-03-15T04:33:56.211Z,67.85
2017-03-15T04:34:56.253Z,76.33
2017-03-15T04:35:56.230Z,75.98
2017-03-15T04:36:56.237Z,78.03
2017-03-15T04:37:56.211Z,75.58
2017-03-15T04:38:56.202Z,72.62
2017-03-15T04:39:56.201Z,75.70
2017-03-15T04:40:57.011Z,71.90
2017-03-15T04:41:57.771Z,76.58
2017-03-15T04:42:57.743Z,71.27
2017-03-15T04:43:58.481Z,76.83
2017-03-15T04:44:58.445Z,83.33
2017-03-15T04:45:58.458Z,79.67
2017-03-15T04:46:58.454Z,80.77
2017-03-15T04:47:58.474Z,75.62
2017-03-15T04:48:58.431Z,82.27
2017-03-15T04:49:58.407Z,79.73
2017-03-15T04:50:58.411Z,72.80
2017-03-15T04:51:58.418Z,81.65
2017-03-15T04:52:58.402Z,72.67
2017-03-15T04:53:58.389Z,78.63
2017-03-15T04:54:58.403Z,70.83
2017-03-15T04:55:58.402Z,77.97
2017-03-15T04:56:58.382Z,75.18
2017-03-15T04:57:58.370Z,77.75
2017-03-15T04:58:58.327Z,82.50
2017-03-15T04:59:58.291Z,78.25
2017-03-15T05:00:58.283Z,79.00
2017-03-15T05:01:58.999Z,83.62
2017-03-15T05:02:58.960Z,73.35
2017-03-15T05:03:58.956Z,79.20
2017-03-15T05:04:58.954Z,79.27
2017-03-15T05:05:59.055Z,83.77
2017-03-15T05:06:59.021Z,83.77
2017-03-15T05:07:59.035Z,76.95
2017-03-15T05:08:59.023Z,74.13
2017-03-15T05:09:59.041Z,85.12
2017-03-15T05:10:59.794Z,79.82
2017-03-15T05:11:59.865Z,85.95
2017-03-15T05:12:59.824Z,85.03
2017-03-15T05:14:00.433Z,90.18
2017-03-15T05:15:00.407Z,82.65
2017-03-15T05:16:00.434Z,78.88
2017-03-15T05:17:00.415Z,84.68
2017-03-15T05:18:00.390Z,76.18
2017-03-15T05:19:01.081Z,80.67
2017-03-15T05:20:01.054Z,81.87
2017-03-15T05:21:01.138Z,79.18
2017-03-15T05:22:01.190Z,80.87
2017-03-15T05:23:01.203Z,92.28
2017-03-15T05:24:01.151Z,90.48
2017-03-15T05:25:05.856Z,84.42
2017-03-15T05:26:06.138Z,75.97
2017-03-15T05:27:06.112Z,83.80
2017-03-15T05:28:06.099Z,83.07
2017-03-15T05:29:06.089Z,87.05
2017-03-15T05:30:06.057Z,81.57
2017-03-15T05:31:06.864Z,79.52
2017-03-15T05:32:06.878Z,85.70
2017-03-15T05:33:06.834Z,87.57
2017-03-15T05:34:06.812Z,76.97
2017-03-15T05:35:06.822Z,80.92
2017-03-15T05:36:06.929Z,77.53
2017-03-15T05:37:07.038Z,80.92
2017-03-15T05:38:07.043Z,82.18
2017-03-15T05:39:08.483Z,81.47
2017-03-15T05:40:08.563Z,71.82
2017-03-15T05:41:08.881Z,84.13
2017-03-15T05:42:09.533Z,79.32
2017-03-15T05:43:09.744Z,72.67
2017-03-15T05:44:09.708Z,75.82
2017-03-15T05:45:09.782Z,71.50
2017-03-15T05:46:09.757Z,76.83
2017-03-15T05:47:09.755Z,71.07
2017-03-15T05:48:09.742Z,76.38
2017-03-15T05:49:09.747Z,85.37
2017-03-15T05:50:09.767Z,79.70
2017-03-15T05:51:09.804Z,85.92
2017-03-15T05:52:09.792Z,73.48
2017-03-15T05:53:09.022Z,75.03
2017-03-15T05:54:09.027Z,72.47
2017-03-15T05:55:09.104Z,79.38
2017-03-15T05:56:09.871Z,71.43
2017-03-15T05:57:09.869Z,78.72
2017-03-15T05:58:11.135Z,80.02
2017-03-15T05:59:11.118Z,67.20
2017-03-15T06:00:11.062Z,70.08
2017-03-15T06:01:11.774Z,74.70
2017-03-15T06:02:11.778Z,78.53
2017-03-15T06:03:11.768Z,71.90
2017-03-15T06:04:12.291Z,78.70
2017-03-15T06:05:12.242Z,78.65
2017-03-15T06:06:12.216Z,69.00
2017-03-15T06:07:12.239Z,65.53
2017-03-15T06:08:12.185Z,85.63
2017-03-15T06:09:12.180Z,78.52
2017-03-15T06:10:12.171Z,77.88
2017-03-15T06:11:12.247Z,83.85
2017-03-15T06:12:12.280Z,77.57
2017-03-15T06:13:12.247Z,73.08
2017-03-15T06:14:12.227Z,77.47
2017-03-15T06:15:12.208Z,68.43
2017-03-15T06:16:12.174Z,71.45
2017-03-15T06:17:12.151Z,71.15
2017-03-15T06:18:12.127Z,69.20
2017-03-15T06:19:12.117Z,73.58
2017-03-15T06:20:12.095Z,66.02
2017-03-15T06:21:12.123Z,75.47
2017-03-15T06:22:12.139Z,69.08
2017-03-15T06:23:12.123Z,69.62
2017-03-15T06:24:12.125Z,66.30
2017-03-15T06:25:12.154Z,77.15
2017-03-15T06:26:12.911Z,71.47
2017-03-15T06:27:12.955Z,68.55
2017-03-15T06:28:12.966Z,74.33
2017-03-15T06:29:12.970Z,63.35
2017-03-15T06:30:14.388Z,66.67
2017-03-15T06:31:14.413Z,66.27
2017-03-15T06:32:14.416Z,64.72
2017-03-15T06:33:14.402Z,74.42
2017-03-15T06:34:14.478Z,67.27
2017-03-15T06:35:14.590Z,66.57
2017-03-15T06:36:14.598Z,77.40
2017-03-15T06:37:14.600Z,77.15
2017-03-15T06:38:14.570Z,62.52
2017-03-15T06:39:14.608Z,71.83
2017-03-15T06:40:14.590Z,69.23
2017-03-15T06:41:14.566Z,69.68
2017-03-15T06:42:14.591Z,68.77
2017-03-15T06:43:14.558Z,70.08
2017-03-15T06:44:14.606Z,69.43
2017-03-15T06:45:15.356Z,76.07
2017-03-15T06:46:15.345Z,66.45
2017-03-15T06:47:15.330Z,75.67
2017-03-15T06:48:15.383Z,67.60
2017-03-15T06:49:15.346Z,63.82
2017-03-15T06:50:15.368Z,64.77
2017-03-15T06:51:16.125Z,55.77
2017-03-15T06:52:16.930Z,62.85
2017-03-15T06:53:17.682Z,64.17
2017-03-15T06:54:17.667Z,63.33
2017-03-15T06:55:17.633Z,70.72
2017-03-15T06:56:17.702Z,69.65
2017-03-15T06:57:17.718Z,60.37
2017-03-15T06:58:17.726Z,61.87
2017-03-15T06:59:17.746Z,62.75
2017-03-15T07:00:17.778Z,64.98
2017-03-15T07:01:18.106Z,67.00
2017-03-15T07:02:21.361Z,61.32
2017-03-15T07:03:21.382Z,63.42
2017-03-15T07:04:21.350Z,66.30
2017-03-15T07:05:21.326Z,64.23
2017-03-15T07:06:21.374Z,57.12
2017-03-15T07:07:21.624Z,59.00
2017-03-15T07:08:22.842Z,60.53
2017-03-15T07:09:22.808Z,63.27
2017-03-15T07:10:23.606Z,65.53
2017-03-15T07:11:23.749Z,56.73
2017-03-15T07:12:24.115Z,64.20
2017-03-15T07:13:24.937Z,62.47
2017-03-15T07:14:24.981Z,60.72
2017-03-15T07:15:25.818Z,59.53
2017-03-15T07:16:26.530Z,64.07
2017-03-15T07:17:26.592Z,67.38
2017-03-15T07:18:26.563Z,62.18
2017-03-15T07:19:26.665Z,62.02
2017-03-15T07:20:26.694Z,63.02
2017-03-15T07:21:26.726Z,63.48
2017-03-15T07:22:26.772Z,55.28
2017-03-15T07:23:26.770Z,59.12
2017-03-15T07:24:26.758Z,58.38
2017-03-15T07:25:26.816Z,65.15
2017-03-15T07:26:26.828Z,63.28
2017-03-15T07:27:26.889Z,59.58
2017-03-15T07:28:26.967Z,60.18
2017-03-15T07:29:27.043Z,56.27
2017-03-15T07:30:27.064Z,53.93
2017-03-15T07:31:27.163Z,64.12
2017-03-15T07:32:27.275Z,53.17
2017-03-15T07:33:27.279Z,59.62
2017-03-15T07:34:27.370Z,55.20
2017-03-15T07:35:27.331Z,55.33
2017-03-15T07:36:27.323Z,58.47
2017-03-15T07:37:27.377Z,60.62
2017-03-15T07:38:27.377Z,56.40
2017-03-15T07:39:28.148Z,54.10
2017-03-15T07:40:28.147Z,54.48
2017-03-15T07:41:28.140Z,57.98
2017-03-15T07:42:29.007Z,57.85
2017-03-15T07:43:29.031Z,59.45
2017-03-15T07:44:29.078Z,59.12
2017-03-15T07:45:29.186Z,54.23
2017-03-15T07:46:29.189Z,57.68
2017-03-15T07:47:29.662Z,57.43
2017-03-15T07:48:29.660Z,58.62
2017-03-15T07:49:29.675Z,60.75
2017-03-15T07:50:29.687Z,56.80
2017-03-15T07:51:29.705Z,53.75
2017-03-15T07:52:29.731Z,53.58
2017-03-15T07:53:29.810Z,53.37
2017-03-15T07:54:29.942Z,58.37
2017-03-15T07:55:29.984Z,51.77
2017-03-15T07:56:30.045Z,55.57
2017-03-15T07:57:30.083Z,60.18
2017-03-15T07:58:30.090Z,51.83
2017-03-15T07:59:30.089Z,53.15
2017-03-15T08:00:30.137Z,53.07
2017-03-15T08:01:30.157Z,54.18
2017-03-15T08:02:40.310Z,66.37
2017-03-15T08:03:40.393Z,56.23
2017-03-15T08:04:40.393Z,54.03
2017-03-15T08:05:40.347Z,49.87
2017-03-15T08:06:40.338Z,61.05
2017-03-15T08:07:40.349Z,53.48
2017-03-15T08:08:40.373Z,53.30
2017-03-15T08:09:41.115Z,54.82
2017-03-15T08:10:41.111Z,55.93
2017-03-15T08:11:41.090Z,59.42
2017-03-15T08:12:41.094Z,53.02
2017-03-15T08:13:41.114Z,56.82
2017-03-15T08:14:41.115Z,60.47
2017-03-15T08:15:41.113Z,60.52
2017-03-15T08:16:41.210Z,59.20
2017-03-15T08:17:41.287Z,55.13
2017-03-15T08:18:41.285Z,54.15
2017-03-15T08:19:41.308Z,54.20
2017-03-15T08:20:41.316Z,46.97
2017-03-15T08:21:41.366Z,52.13
2017-03-15T08:22:42.160Z,49.15
2017-03-15T08:23:42.222Z,58.85
2017-03-15T08:24:52.507Z,50.68
2017-03-15T08:25:54.472Z,58.23
2017-03-15T08:26:54.471Z,52.42
2017-03-15T08:27:54.526Z,57.05
2017-03-15T08:28:54.545Z,57.32
2017-03-15T08:29:54.523Z,54.73
2017-03-15T08:30:54.493Z,49.00
2017-03-15T08:31:54.500Z,51.57
2017-03-15T08:32:54.553Z,54.53
2017-03-15T08:33:54.546Z,54.60
2017-03-15T08:34:54.586Z,55.37
2017-03-15T08:35:54.615Z,53.83
2017-03-15T08:36:54.660Z,52.05
2017-03-15T08:37:55.695Z,59.03
2017-03-15T08:38:55.687Z,51.73
2017-03-15T08:39:55.769Z,50.55
2017-03-15T08:40:55.782Z,54.37
2017-03-15T08:41:55.769Z,54.82
2017-03-15T08:42:55.771Z,57.42
2017-03-15T08:43:55.746Z,54.68
2017-03-15T08:44:55.740Z,53.25
2017-03-15T08:45:56.645Z,50.03
2017-03-15T08:46:56.639Z,52.38
2017-03-15T08:47:57.887Z,55.43
2017-03-15T08:48:57.906Z,55.78
2017-03-15T08:49:57.938Z,49.07
2017-03-15T08:50:59.650Z,53.00
2017-03-15T08:51:59.656Z,56.93
2017-03-15T08:52:59.768Z,70.13
2017-03-15T08:53:59.755Z,60.02
2017-03-15T08:54:59.728Z,58.55
2017-03-15T08:55:59.703Z,57.73
2017-03-15T08:56:59.692Z,54.33
2017-03-15T08:57:59.726Z,60.25
2017-03-15T08:58:59.771Z,56.62
2017-03-15T08:59:59.865Z,53.00
2017-03-15T09:00:59.839Z,53.87
2017-03-15T09:01:59.855Z,58.60
2017-03-15T09:03:00.607Z,70.35
2017-03-15T09:04:00.626Z,69.73
2017-03-15T09:05:00.609Z,64.75
2017-03-15T09:06:00.607Z,65.78
2017-03-15T09:07:00.623Z,62.48
2017-03-15T09:08:00.640Z,57.97
2017-03-15T09:09:01.427Z,62.67
2017-03-15T09:10:01.422Z,72.12
2017-03-15T09:11:01.442Z,67.33
2017-03-15T09:12:01.431Z,76.57
2017-03-15T09:13:01.717Z,68.03
2017-03-15T09:14:01.693Z,81.78
2017-03-15T09:15:01.731Z,74.85
2017-03-15T09:16:01.803Z,79.75
2017-03-15T09:17:02.306Z,74.57
2017-03-15T09:18:02.357Z,77.82
2017-03-15T09:19:03.303Z,71.32
2017-03-15T09:20:03.340Z,76.82
2017-03-15T09:21:04.302Z,77.63
2017-03-15T09:22:04.288Z,77.08
2017-03-15T09:23:04.811Z,77.32
2017-03-15T09:24:04.826Z,73.27
2017-03-15T09:25:05.160Z,72.98
2017-03-15T09:26:05.202Z,71.83
2017-03-15T09:27:05.252Z,73.15
2017-03-15T09:28:05.254Z,67.02
2017-03-15T09:29:05.241Z,66.68
2017-03-15T09:30:07.302Z,67.95
2017-03-15T09:31:07.335Z,61.98
2017-03-15T09:32:07.351Z,68.60
2017-03-15T09:33:08.155Z,60.70
2017-03-15T09:34:08.227Z,66.55
2017-03-15T09:35:08.214Z,60.28
2017-03-15T09:36:08.207Z,59.73
2017-03-15T09:37:08.196Z,60.00
2017-03-15T09:38:08.311Z,59.50
2017-03-15T09:39:08.297Z,62.92
2017-03-15T09:40:08.295Z,57.52
2017-03-15T09:41:08.319Z,64.87
2017-03-15T09:42:08.308Z,67.87
2017-03-15T09:43:08.339Z,59.35
2017-03-15T09:44:08.422Z,59.38
2017-03-15T09:45:08.482Z,64.78
2017-03-15T09:46:08.486Z,64.58
2017-03-15T09:47:08.978Z,71.52
2017-03-15T09:48:08.948Z,67.03
2017-03-15T09:49:09.011Z,56.20
2017-03-15T09:50:10.790Z,63.33
2017-03-15T09:51:10.836Z,57.52
2017-03-15T09:52:10.826Z,56.82
2017-03-15T09:53:11.081Z,58.93
2017-03-15T09:54:11.127Z,63.33
2017-03-15T09:55:11.094Z,63.68
2017-03-15T09:56:11.176Z,60.25
2017-03-15T09:57:11.323Z,59.50
2017-03-15T09:58:11.300Z,60.90
2017-03-15T09:59:11.311Z,61.42
2017-03-15T10:00:11.315Z,67.68
2017-03-15T10:01:11.317Z,58.23
2017-03-15T10:02:12.081Z,55.20
2017-03-15T10:03:12.111Z,55.47
2017-03-15T10:04:12.142Z,56.67
2017-03-15T10:05:12.174Z,50.83
2017-03-15T10:06:12.135Z,47.82
2017-03-15T10:07:12.203Z,43.73
2017-03-15T10:08:14.976Z,49.95
2017-03-15T10:09:15.270Z,44.12
2017-03-15T10:10:16.067Z,45.98
2017-03-15T10:11:16.075Z,43.97
2017-03-15T10:12:16.090Z,42.92
2017-03-15T10:13:16.116Z,43.93
2017-03-15T10:14:16.094Z,40.67
2017-03-15T10:15:16.121Z,38.28
2017-03-15T10:16:16.107Z,34.57
2017-03-15T10:17:16.945Z,36.07
2017-03-15T10:18:17.371Z,38.75
2017-03-15T10:19:17.398Z,31.72
2017-03-15T10:20:19.396Z,32.33
2017-03-15T10:21:19.446Z,32.75
2017-03-15T10:22:19.762Z,33.96
2017-03-15T10:23:19.765Z,27.43
2017-03-15T10:24:19.782Z,30.27
2017-03-15T10:25:19.862Z,27.76
2017-03-15T10:26:20.640Z,31.55
2017-03-15T10:27:20.645Z,34.57
2017-03-15T10:28:20.678Z,29.78
2017-03-15T10:29:20.719Z,27.63
2017-03-15T10:30:20.773Z,29.32
2017-03-15T10:31:20.798Z,29.70
2017-03-15T10:32:21.127Z,34.57
2017-03-15T10:33:21.226Z,34.33
2017-03-15T10:34:21.274Z,35.00
2017-03-15T10:35:21.310Z,37.07
2017-03-15T10:36:21.326Z,37.23
2017-03-15T10:37:21.667Z,35.08
2017-03-15T10:38:21.669Z,35.17
2017-03-15T10:39:21.687Z,33.37
2017-03-15T10:40:21.757Z,27.72
2017-03-15T10:41:21.773Z,32.27
2017-03-15T10:42:21.731Z,28.35
2017-03-15T10:43:21.743Z,29.10
2017-03-15T10:44:21.742Z,29.35
2017-03-15T10:45:21.777Z,26.16
2017-03-15T10:46:21.791Z,28.80
2017-03-15T10:47:22.075Z,27.10
2017-03-15T10:48:22.073Z,31.07
2017-03-15T10:49:22.089Z,26.57
2017-03-15T10:50:28.492Z,27.74
2017-03-15T10:51:28.487Z,23.64
2017-03-15T10:52:28.458Z,26.46
2017-03-15T10:53:28.446Z,28.29
2017-03-15T10:54:28.454Z,26.97
2017-03-15T10:55:28.491Z,28.93
2017-03-15T10:56:28.484Z,28.31
2017-03-15T10:57:29.286Z,31.10
2017-03-15T10:58:29.362Z,26.13
2017-03-15T10:59:29.422Z,22.69
2017-03-15T11:00:29.566Z,25.30
2017-03-15T11:01:29.582Z,25.34
2017-03-15T11:02:29.651Z,24.00
2017-03-15T11:03:31.123Z,22.19
2017-03-15T11:04:31.129Z,20.96
2017-03-15T11:05:31.231Z,15.69
2017-03-15T11:06:31.278Z,20.67
2017-03-15T11:07:31.296Z,16.12
2017-03-15T11:08:31.328Z,22.84
2017-03-15T11:09:31.305Z,24.18
2017-03-15T11:10:31.396Z,21.40
2017-03-15T11:11:31.372Z,22.23
2017-03-15T11:12:31.467Z,23.63
2017-03-15T11:13:31.515Z,22.63
2017-03-15T11:14:31.629Z,23.97
2017-03-15T11:15:31.667Z,21.68
2017-03-15T11:16:31.674Z,15.67
2017-03-15T11:17:31.730Z,21.42
2017-03-15T11:18:31.729Z,21.90
2017-03-15T11:19:31.812Z,17.60
2017-03-15T11:20:31.849Z,18.82
2017-03-15T11:21:31.851Z,25.68
2017-03-15T11:22:31.889Z,23.13
2017-03-15T11:23:31.911Z,27.67
2017-03-15T11:24:31.911Z,22.67
2017-03-15T11:25:31.949Z,20.92
2017-03-15T11:26:31.948Z,21.07
2017-03-15T11:27:31.952Z,24.69
2017-03-15T11:28:31.934Z,22.32
2017-03-15T11:29:31.945Z,25.07
2017-03-15T11:30:32.715Z,18.77
2017-03-15T11:31:32.738Z,14.93
2017-03-15T11:32:32.710Z,14.23
2017-03-15T11:33:32.709Z,20.70
2017-03-15T11:34:32.686Z,19.02
2017-03-15T11:35:32.707Z,22.66
2017-03-15T11:36:32.738Z,21.59
2017-03-15T11:37:32.709Z,21.82
2017-03-15T11:38:32.781Z,28.89
2017-03-15T11:39:32.766Z,25.22
2017-03-15T11:40:32.773Z,23.13
2017-03-15T11:41:33.547Z,26.94
2017-03-15T11:42:33.528Z,21.70
2017-03-15T11:43:33.495Z,27.77
2017-03-15T11:44:33.508Z,26.60
2017-03-15T11:45:33.573Z,22.59
2017-03-15T11:46:33.556Z,22.38
2017-03-15T11:47:33.612Z,22.28
2017-03-15T11:48:33.622Z,19.91
2017-03-15T11:49:33.631Z,21.07
2017-03-15T11:50:33.644Z,22.22
2017-03-15T11:51:33.672Z,22.35
2017-03-15T11:52:33.906Z,17.53
2017-03-15T11:53:33.950Z,17.82
2017-03-15T11:54:33.978Z,19.18
2017-03-15T11:55:33.981Z,22.68
2017-03-15T11:56:33.999Z,23.83
2017-03-15T11:57:34.000Z,16.69
2017-03-15T11:58:34.014Z,20.88
2017-03-15T11:59:34.057Z,16.07
2017-03-15T12:00:34.098Z,17.66
2017-03-15T12:01:34.232Z,15.67
2017-03-15T12:02:34.298Z,12.96
2017-03-15T12:03:34.298Z,14.36
2017-03-15T12:04:34.358Z,15.04
2017-03-15T12:05:34.379Z,14.43
2017-03-15T12:06:34.473Z,13.64
2017-03-15T12:07:34.498Z,13.83
2017-03-15T12:08:34.507Z,14.23
2017-03-15T12:09:34.506Z,14.97
2017-03-15T12:10:34.508Z,14.13
2017-03-15T12:11:35.330Z,16.89
2017-03-15T12:12:35.336Z,15.06
2017-03-15T12:13:35.326Z,15.89
2017-03-15T12:14:35.340Z,13.77
2017-03-15T12:15:35.389Z,14.54
2017-03-15T12:16:35.447Z,15.73
2017-03-15T12:17:35.430Z,15.31
2017-03-15T12:18:35.425Z,12.67
2017-03-15T12:19:35.482Z,17.86
2017-03-15T12:20:35.517Z,12.94
2017-03-15T12:21:35.582Z,14.49
2017-03-15T12:22:35.634Z,14.40
2017-03-15T12:23:35.661Z,11.37
2017-03-15T12:24:35.623Z,11.54
2017-03-15T12:25:42.301Z,13.96
2017-03-15T12:26:43.382Z,12.30
2017-03-15T12:27:43.378Z,11.67
2017-03-15T12:28:43.353Z,13.21
2017-03-15T12:29:43.366Z,12.56
2017-03-15T12:30:43.393Z,13.37
2017-03-15T12:31:43.479Z,17.39
2017-03-15T12:32:43.479Z,13.00
2017-03-15T12:33:43.549Z,13.04
2017-03-15T12:34:43.622Z,12.57
2017-03-15T12:35:43.645Z,12.81
2017-03-15T12:36:43.708Z,14.97
2017-03-15T12:37:43.724Z,12.70
2017-03-15T12:38:43.714Z,13.01
2017-03-15T12:39:43.734Z,14.26
2017-03-15T12:40:43.721Z,12.41
2017-03-15T12:41:43.851Z,14.06
2017-03-15T12:42:44.540Z,9.74
2017-03-15T12:43:44.547Z,8.50
2017-03-15T12:44:44.609Z,11.03
2017-03-15T12:45:44.602Z,13.03
2017-03-15T12:46:44.659Z,10.79
2017-03-15T12:47:44.710Z,6.81
2017-03-15T12:48:44.666Z,8.77
2017-03-15T12:49:44.698Z,10.31
2017-03-15T12:50:44.697Z,12.48
2017-03-15T12:51:45.529Z,11.51
2017-03-15T12:52:45.508Z,12.04
2017-03-15T12:53:45.488Z,10.38
2017-03-15T12:54:45.471Z,10.43
2017-03-15T12:55:45.518Z,13.95
2017-03-15T12:56:45.576Z,14.70
2017-03-15T12:57:45.569Z,14.28
2017-03-15T12:58:46.648Z,15.13
2017-03-15T12:59:46.614Z,11.33
2017-03-15T13:00:46.791Z,13.88